createdAt,value
2019-01-30T00:00:55.164Z,3.90
2019-01-30T00:02:01.708Z,3.82
2019-01-30T00:03:06.217Z,3.89
2019-01-30T00:04:11.717Z,3.86
2019-01-30T00:05:17.157Z,3.88
2019-01-30T00:06:22.724Z,3.90
2019-01-30T00:07:28.219Z,3.79
2019-01-30T00:08:34.697Z,3.88
2019-01-30T00:09:39.207Z,3.90
2019-01-30T00:10:44.738Z,3.82
2019-01-30T00:11:50.247Z,3.94
2019-01-30T00:12:55.673Z,3.94
2019-01-30T00:14:01.197Z,3.90
2019-01-30T00:15:07.732Z,3.89
2019-01-30T00:16:12.265Z,3.85
2019-01-30T00:17:17.658Z,3.92
2019-01-30T00:18:23.223Z,3.96
2019-01-30T00:19:28.756Z,3.98
2019-01-30T00:20:34.278Z,3.90
2019-01-30T00:21:40.764Z,3.98
2019-01-30T00:22:45.278Z,4.04
2019-01-30T00:23:50.784Z,3.98
2019-01-30T00:24:56.299Z,3.98
2019-01-30T00:26:01.775Z,3.97
2019-01-30T00:27:07.289Z,3.98
2019-01-30T00:28:13.796Z,3.98
2019-01-30T00:29:18.243Z,3.97
2019-01-30T00:30:23.816Z,4.04
2019-01-30T00:31:29.272Z,4.03
2019-01-30T00:32:34.801Z,4.04
2019-01-30T00:33:40.346Z,4.01
2019-01-30T00:34:46.834Z,4.06
2019-01-30T00:35:51.335Z,4.08
2019-01-30T00:36:56.808Z,4.08
2019-01-30T00:38:02.290Z,4.08
2019-01-30T00:39:07.840Z,4.07
2019-01-30T00:40:13.353Z,4.08
2019-01-30T00:41:19.845Z,4.10
2019-01-30T00:42:24.368Z,4.10
2019-01-30T00:43:29.835Z,4.06
2019-01-30T00:44:35.306Z,4.07
2019-01-30T00:45:40.852Z,4.08
2019-01-30T00:46:46.339Z,4.18
2019-01-30T00:47:52.891Z,4.12
2019-01-30T00:48:57.334Z,4.14
2019-01-30T00:50:02.845Z,4.03
2019-01-30T00:51:08.365Z,4.07
2019-01-30T00:52:13.901Z,4.07
2019-01-30T00:53:19.342Z,4.12
2019-01-30T00:54:32.019Z,4.04
2019-01-30T00:55:30.368Z,4.21
2019-01-30T00:56:35.940Z,4.06
2019-01-30T00:57:41.425Z,4.19
2019-01-30T00:58:46.807Z,4.07
2019-01-30T00:59:52.394Z,4.12
2019-01-30T01:00:58.909Z,4.07
2019-01-30T01:02:03.427Z,4.07
2019-01-30T01:03:08.865Z,4.07
2019-01-30T01:04:14.418Z,4.04
2019-01-30T01:05:19.895Z,4.06
2019-01-30T01:06:25.430Z,4.08
2019-01-30T01:07:31.971Z,4.10
2019-01-30T01:08:36.544Z,4.06
2019-01-30T01:09:41.959Z,4.08
2019-01-30T01:10:47.413Z,4.07
2019-01-30T01:11:52.949Z,4.07
2019-01-30T01:12:58.456Z,4.18
2019-01-30T01:14:04.955Z,4.16
2019-01-30T01:15:09.542Z,4.08
2019-01-30T01:16:14.969Z,4.07
2019-01-30T01:17:20.489Z,4.04
2019-01-30T01:18:25.977Z,4.08
2019-01-30T01:19:31.428Z,4.10
2019-01-30T01:20:37.990Z,4.01
2019-01-30T01:21:42.498Z,4.14
2019-01-30T01:22:47.936Z,4.07
2019-01-30T01:23:53.492Z,4.12
2019-01-30T01:24:58.943Z,4.08
2019-01-30T01:26:04.507Z,4.06
2019-01-30T01:27:11.077Z,4.10
2019-01-30T01:28:15.557Z,4.04
2019-01-30T01:29:21.030Z,3.96
2019-01-30T01:30:26.492Z,3.97
2019-01-30T01:31:32.019Z,3.96
2019-01-30T01:32:37.483Z,4.00
2019-01-30T01:33:44.064Z,4.01
2019-01-30T01:34:48.543Z,4.03
2019-01-30T01:35:54.055Z,3.96
2019-01-30T01:36:59.552Z,3.94
2019-01-30T01:38:05.060Z,3.96
2019-01-30T01:39:10.570Z,4.00
2019-01-30T01:40:17.011Z,3.94
2019-01-30T01:41:21.570Z,3.94
2019-01-30T01:42:27.039Z,3.94
2019-01-30T01:43:32.473Z,3.98
2019-01-30T01:44:38.061Z,3.90
2019-01-30T01:45:43.557Z,3.85
2019-01-30T01:46:50.000Z,3.92
2019-01-30T01:47:54.584Z,3.90
2019-01-30T01:49:00.089Z,3.88
2019-01-30T01:50:05.610Z,3.85
2019-01-30T01:51:11.128Z,3.88
2019-01-30T01:52:16.631Z,3.86
2019-01-30T01:53:23.132Z,3.88
2019-01-30T01:54:27.651Z,3.86
2019-01-30T01:55:33.133Z,3.83
2019-01-30T01:56:38.617Z,3.82
2019-01-30T01:57:44.108Z,3.83
2019-01-30T01:58:49.653Z,3.82
2019-01-30T01:59:56.143Z,3.78
2019-01-30T02:01:00.590Z,3.76
2019-01-30T02:02:06.129Z,3.80
2019-01-30T02:03:11.647Z,3.78
2019-01-30T02:04:17.144Z,3.72
2019-01-30T02:05:22.700Z,3.79
2019-01-30T02:06:29.193Z,3.79
2019-01-30T02:07:33.685Z,3.72
2019-01-30T02:08:39.218Z,3.72
2019-01-30T02:09:44.712Z,3.72
2019-01-30T02:10:50.179Z,3.71
2019-01-30T02:11:55.718Z,3.82
2019-01-30T02:13:02.183Z,3.79
2019-01-30T02:14:06.698Z,3.76
2019-01-30T02:15:12.160Z,3.67
2019-01-30T02:16:17.645Z,3.70
2019-01-30T02:17:23.197Z,3.71
2019-01-30T02:18:28.691Z,3.76
2019-01-30T02:19:35.175Z,3.78
2019-01-30T02:20:39.738Z,3.75
2019-01-30T02:21:45.238Z,3.72
2019-01-30T02:22:50.743Z,3.76
2019-01-30T02:23:56.233Z,3.80
2019-01-30T02:25:01.739Z,3.76
2019-01-30T02:26:08.173Z,3.79
2019-01-30T02:27:12.758Z,3.76
2019-01-30T02:28:18.241Z,3.79
2019-01-30T02:29:23.774Z,3.72
2019-01-30T02:30:29.222Z,3.72
2019-01-30T02:31:34.761Z,3.78
2019-01-30T02:32:41.209Z,3.83
2019-01-30T02:33:45.772Z,3.78
2019-01-30T02:34:51.283Z,3.82
2019-01-30T02:35:56.793Z,3.79
2019-01-30T02:37:02.288Z,3.89
2019-01-30T02:38:07.826Z,3.86
2019-01-30T02:39:14.274Z,3.89
2019-01-30T02:40:18.798Z,3.86
2019-01-30T02:41:24.287Z,3.85
2019-01-30T02:42:29.788Z,3.85
2019-01-30T02:43:35.297Z,3.83
2019-01-30T02:44:40.796Z,3.88
2019-01-30T02:45:47.261Z,3.86
2019-01-30T02:46:51.790Z,3.90
2019-01-30T02:47:57.310Z,3.92
2019-01-30T02:49:02.855Z,3.89
2019-01-30T02:50:08.337Z,3.86
2019-01-30T02:51:13.787Z,3.97
2019-01-30T02:52:20.361Z,3.92
2019-01-30T02:53:24.840Z,3.90
2019-01-30T02:54:30.380Z,3.90
2019-01-30T02:55:35.889Z,3.98
2019-01-30T02:56:41.358Z,3.92
2019-01-30T02:57:46.851Z,3.94
2019-01-30T02:58:53.356Z,4.03
2019-01-30T02:59:57.866Z,4.04
2019-01-30T03:01:03.344Z,3.98
2019-01-30T03:02:08.841Z,4.01
2019-01-30T03:03:14.289Z,3.96
2019-01-30T03:04:19.909Z,3.92
2019-01-30T03:05:26.430Z,3.97
2019-01-30T03:06:30.905Z,3.89
2019-01-30T03:07:36.393Z,3.89
2019-01-30T03:08:41.978Z,3.94
2019-01-30T03:09:47.312Z,3.98
2019-01-30T03:10:52.898Z,3.89
2019-01-30T03:11:59.446Z,3.89
2019-01-30T03:13:03.934Z,3.89
2019-01-30T03:14:09.406Z,3.86
2019-01-30T03:15:14.935Z,3.88
2019-01-30T03:16:20.418Z,3.90
2019-01-30T03:17:25.890Z,3.88
2019-01-30T03:18:32.441Z,3.85
2019-01-30T03:19:36.934Z,3.79
2019-01-30T03:20:42.460Z,3.79
2019-01-30T03:21:47.911Z,3.80
2019-01-30T03:22:53.437Z,3.78
2019-01-30T03:23:58.992Z,3.70
2019-01-30T03:25:05.490Z,3.72
2019-01-30T03:26:09.982Z,3.79
2019-01-30T03:27:15.478Z,3.79
2019-01-30T03:28:20.982Z,3.68
2019-01-30T03:29:26.479Z,3.82
2019-01-30T03:30:31.916Z,3.79
2019-01-30T03:31:38.434Z,3.68
2019-01-30T03:32:42.945Z,3.67
2019-01-30T03:33:48.516Z,3.75
2019-01-30T03:34:53.962Z,3.72
2019-01-30T03:35:59.506Z,3.71
2019-01-30T03:37:05.018Z,3.68
2019-01-30T03:38:11.526Z,3.64
2019-01-30T03:39:16.020Z,3.67
2019-01-30T03:40:21.606Z,3.64
2019-01-30T03:41:27.041Z,3.67
2019-01-30T03:42:32.532Z,3.68
2019-01-30T03:43:38.009Z,3.62
2019-01-30T03:44:44.554Z,3.58
2019-01-30T03:45:49.050Z,3.62
2019-01-30T03:46:54.554Z,3.61
2019-01-30T03:48:00.015Z,3.54
2019-01-30T03:49:05.547Z,3.62
2019-01-30T03:50:11.070Z,3.58
2019-01-30T03:51:17.489Z,3.58
2019-01-30T03:52:22.061Z,3.54
2019-01-30T03:53:27.554Z,3.65
2019-01-30T03:54:33.019Z,3.64
2019-01-30T03:55:38.574Z,3.61
2019-01-30T03:56:44.048Z,3.53
2019-01-30T03:57:50.575Z,3.52
2019-01-30T03:58:55.056Z,3.62
2019-01-30T04:00:00.557Z,3.58
2019-01-30T04:01:06.066Z,3.58
2019-01-30T04:02:11.580Z,3.54
2019-01-30T04:03:17.014Z,3.67
2019-01-30T04:04:23.626Z,3.57
2019-01-30T04:05:28.094Z,3.53
2019-01-30T04:06:33.560Z,3.57
2019-01-30T04:07:39.083Z,3.58
2019-01-30T04:08:44.625Z,3.58
2019-01-30T04:09:50.124Z,3.54
2019-01-30T04:10:56.625Z,3.61
2019-01-30T04:12:01.158Z,3.58
2019-01-30T04:13:06.674Z,3.57
2019-01-30T04:14:12.132Z,3.52
2019-01-30T04:15:17.582Z,3.60
2019-01-30T04:16:23.113Z,3.53
2019-01-30T04:17:29.790Z,3.57
2019-01-30T04:18:34.152Z,3.58
2019-01-30T04:19:39.691Z,3.58
2019-01-30T04:20:45.175Z,3.54
2019-01-30T04:21:50.669Z,3.52
2019-01-30T04:22:56.161Z,3.53
2019-01-30T04:24:02.699Z,3.52
2019-01-30T04:25:07.118Z,3.54
2019-01-30T04:26:12.676Z,3.53
2019-01-30T04:27:18.181Z,3.46
2019-01-30T04:28:23.685Z,3.53
2019-01-30T04:29:29.176Z,3.54
2019-01-30T04:30:35.709Z,3.44
2019-01-30T04:31:40.152Z,3.43
2019-01-30T04:32:45.682Z,3.47
2019-01-30T04:33:51.205Z,3.54
2019-01-30T04:34:56.713Z,3.57
2019-01-30T04:36:02.223Z,3.47
2019-01-30T04:37:08.749Z,3.57
2019-01-30T04:38:13.237Z,3.52
2019-01-30T04:39:18.676Z,3.49
2019-01-30T04:40:24.217Z,3.52
2019-01-30T04:41:29.716Z,3.43
2019-01-30T04:42:35.233Z,3.52
2019-01-30T04:43:41.727Z,3.57
2019-01-30T04:44:46.223Z,3.43
2019-01-30T04:45:51.691Z,3.44
2019-01-30T04:46:57.228Z,3.52
2019-01-30T04:48:02.716Z,3.52
2019-01-30T04:49:08.248Z,3.44
2019-01-30T04:50:14.768Z,3.43
2019-01-30T04:51:19.240Z,3.47
2019-01-30T04:52:24.784Z,3.46
2019-01-30T04:53:30.278Z,3.46
2019-01-30T04:54:35.739Z,3.46
2019-01-30T04:55:41.282Z,3.44
2019-01-30T04:56:47.766Z,3.46
2019-01-30T04:57:52.276Z,3.47
2019-01-30T04:58:57.827Z,3.46
2019-01-30T05:00:03.290Z,3.36
2019-01-30T05:01:08.794Z,3.39
2019-01-30T05:02:14.266Z,3.40
2019-01-30T05:03:20.804Z,3.43
2019-01-30T05:04:25.390Z,3.42
2019-01-30T05:05:30.823Z,3.44
2019-01-30T05:06:36.316Z,3.46
2019-01-30T05:07:41.833Z,3.43
2019-01-30T05:08:47.205Z,3.40
2019-01-30T05:09:53.803Z,3.43
2019-01-30T05:10:58.330Z,3.44
2019-01-30T05:12:03.804Z,3.46
2019-01-30T05:13:09.320Z,3.47
2019-01-30T05:14:14.813Z,3.44
2019-01-30T05:15:20.342Z,3.43
2019-01-30T05:16:26.809Z,3.46
2019-01-30T05:17:31.344Z,3.50
2019-01-30T05:18:36.825Z,3.36
2019-01-30T05:19:42.381Z,3.44
2019-01-30T05:20:47.842Z,3.44
2019-01-30T05:21:53.350Z,3.50
2019-01-30T05:22:59.895Z,3.44
2019-01-30T05:24:04.403Z,3.47
2019-01-30T05:25:09.875Z,3.46
2019-01-30T05:26:15.381Z,3.43
2019-01-30T05:27:20.840Z,3.49
2019-01-30T05:28:26.385Z,3.47
2019-01-30T05:29:32.893Z,3.47
2019-01-30T05:30:37.393Z,3.46
2019-01-30T05:31:42.835Z,3.44
2019-01-30T05:32:48.396Z,3.47
2019-01-30T05:33:53.876Z,3.47
2019-01-30T05:34:59.428Z,3.52
2019-01-30T05:36:05.953Z,3.43
2019-01-30T05:37:10.425Z,3.44
2019-01-30T05:38:15.912Z,3.46
2019-01-30T05:39:21.462Z,3.47
2019-01-30T05:40:26.943Z,3.44
2019-01-30T05:41:32.411Z,3.44
2019-01-30T05:42:38.968Z,3.50
2019-01-30T05:43:43.456Z,3.47
2019-01-30T05:44:48.916Z,3.46
2019-01-30T05:45:54.440Z,3.52
2019-01-30T05:46:59.956Z,3.44
2019-01-30T05:48:05.467Z,3.46
2019-01-30T05:49:11.946Z,3.49
2019-01-30T05:50:16.469Z,3.43
2019-01-30T05:51:21.978Z,3.40
2019-01-30T05:52:27.489Z,3.46
2019-01-30T05:53:32.985Z,3.50
2019-01-30T05:54:38.452Z,3.42
2019-01-30T05:55:44.949Z,3.47
2019-01-30T05:56:49.480Z,3.46
2019-01-30T05:57:55.011Z,3.47
2019-01-30T05:59:00.438Z,3.46
2019-01-30T06:00:06.017Z,3.44
2019-01-30T06:01:11.527Z,3.44
2019-01-30T06:02:17.930Z,3.47
2019-01-30T06:03:22.497Z,3.52
2019-01-30T06:04:28.040Z,3.44
2019-01-30T06:05:33.525Z,3.46
2019-01-30T06:06:39.041Z,3.61
2019-01-30T06:07:44.550Z,3.57
2019-01-30T06:08:51.059Z,3.50
2019-01-30T06:09:55.510Z,3.47
2019-01-30T06:11:01.032Z,3.52
2019-01-30T06:12:06.536Z,3.58
2019-01-30T06:13:12.040Z,3.46
2019-01-30T06:14:17.476Z,3.46
2019-01-30T06:15:24.044Z,3.60
2019-01-30T06:16:28.553Z,3.57
2019-01-30T06:17:34.042Z,3.54
2019-01-30T06:18:39.564Z,3.46
2019-01-30T06:19:45.085Z,3.61
2019-01-30T06:20:50.587Z,3.54
2019-01-30T06:21:57.095Z,3.54
2019-01-30T06:23:01.974Z,3.58
2019-01-30T06:24:07.097Z,3.54
2019-01-30T06:25:12.608Z,3.60
2019-01-30T06:26:18.050Z,3.60
2019-01-30T06:27:23.597Z,3.60
2019-01-30T06:28:30.110Z,3.53
2019-01-30T06:29:34.587Z,3.60
2019-01-30T06:30:40.104Z,3.58
2019-01-30T06:31:46.350Z,3.58
2019-01-30T06:32:51.104Z,3.47
2019-01-30T06:33:56.633Z,3.46
2019-01-30T06:35:03.148Z,3.57
2019-01-30T06:36:07.653Z,3.57
2019-01-30T06:37:13.171Z,3.54
2019-01-30T06:38:18.654Z,3.47
2019-01-30T06:39:24.106Z,3.49
2019-01-30T06:40:29.636Z,3.46
2019-01-30T06:41:36.245Z,3.57
2019-01-30T06:42:40.655Z,3.46
2019-01-30T06:43:46.100Z,3.44
2019-01-30T06:44:51.641Z,3.44
2019-01-30T06:45:57.169Z,3.46
2019-01-30T06:47:02.670Z,3.43
2019-01-30T06:48:09.198Z,3.42
2019-01-30T06:49:13.644Z,3.44
2019-01-30T06:50:19.168Z,3.52
2019-01-30T06:51:24.703Z,3.52
2019-01-30T06:52:30.196Z,3.49
2019-01-30T06:53:35.717Z,3.49
2019-01-30T06:54:42.183Z,3.47
2019-01-30T06:55:46.627Z,3.46
2019-01-30T06:56:52.215Z,3.44
2019-01-30T06:57:57.707Z,3.47
2019-01-30T06:59:03.151Z,3.44
2019-01-30T07:00:08.694Z,3.47
2019-01-30T07:01:15.240Z,3.46
2019-01-30T07:02:19.759Z,3.43
2019-01-30T07:03:25.253Z,3.46
2019-01-30T07:04:30.741Z,3.43
2019-01-30T07:05:36.281Z,3.42
2019-01-30T07:06:41.767Z,3.49
2019-01-30T07:07:48.251Z,3.47
2019-01-30T07:08:52.782Z,3.47
2019-01-30T07:09:58.211Z,3.44
2019-01-30T07:11:10.437Z,3.47
2019-01-30T07:12:09.235Z,3.44
2019-01-30T07:13:14.761Z,3.49
2019-01-30T07:14:21.228Z,3.43
2019-01-30T07:15:25.790Z,3.42
2019-01-30T07:16:31.294Z,3.43
2019-01-30T07:17:36.707Z,3.44
2019-01-30T07:18:42.305Z,3.43
2019-01-30T07:19:47.816Z,3.49
2019-01-30T07:20:54.286Z,3.43
2019-01-30T07:21:58.746Z,3.44
2019-01-30T07:23:04.329Z,3.44
2019-01-30T07:24:09.807Z,3.50
2019-01-30T07:25:15.277Z,3.52
2019-01-30T07:26:20.804Z,3.43
2019-01-30T07:27:27.330Z,3.46
2019-01-30T07:28:31.759Z,3.46
2019-01-30T07:29:37.316Z,3.44
2019-01-30T07:30:43.210Z,3.44
2019-01-30T07:31:48.344Z,3.39
2019-01-30T07:32:53.931Z,3.47
2019-01-30T07:34:00.349Z,3.53
2019-01-30T07:35:08.325Z,3.42
2019-01-30T07:36:10.362Z,3.44
2019-01-30T07:37:15.843Z,3.46
2019-01-30T07:38:21.371Z,3.52
2019-01-30T07:39:26.913Z,3.54
2019-01-30T07:40:33.333Z,3.50
2019-01-30T07:41:37.905Z,3.52
2019-01-30T07:42:43.381Z,3.54
2019-01-30T07:43:48.870Z,3.54
2019-01-30T07:44:54.350Z,3.46
2019-01-30T07:45:59.903Z,3.54
2019-01-30T07:47:06.340Z,3.52
2019-01-30T07:48:10.875Z,3.57
2019-01-30T07:49:16.328Z,3.52
2019-01-30T07:50:22.024Z,3.60
2019-01-30T07:51:27.400Z,3.61
2019-01-30T07:52:32.924Z,3.57
2019-01-30T07:53:39.407Z,3.50
2019-01-30T07:54:43.870Z,3.52
2019-01-30T07:55:49.411Z,3.62
2019-01-30T07:56:54.924Z,3.60
2019-01-30T07:58:00.400Z,3.61
2019-01-30T07:59:05.847Z,3.65
2019-01-30T08:00:12.426Z,3.70
2019-01-30T08:01:16.901Z,3.57
2019-01-30T08:02:22.407Z,3.68
2019-01-30T08:03:27.927Z,3.64
2019-01-30T08:04:33.452Z,3.68
2019-01-30T08:05:38.935Z,3.75
2019-01-30T08:06:45.475Z,3.68
2019-01-30T08:07:49.992Z,3.71
2019-01-30T08:08:55.489Z,3.76
2019-01-30T08:10:00.982Z,3.70
2019-01-30T08:11:07.443Z,3.76
2019-01-30T08:12:12.667Z,3.79
2019-01-30T08:13:18.511Z,3.85
2019-01-30T08:14:23.031Z,3.88
2019-01-30T08:15:28.483Z,3.85
2019-01-30T08:16:34.028Z,3.83
2019-01-30T08:17:39.513Z,3.86
2019-01-30T08:18:44.999Z,3.83
2019-01-30T08:19:52.085Z,3.89
2019-01-30T08:20:56.014Z,3.79
2019-01-30T08:22:01.549Z,3.88
2019-01-30T08:23:07.030Z,3.92
2019-01-30T08:24:12.553Z,3.86
2019-01-30T08:25:18.102Z,3.88
2019-01-30T08:26:25.618Z,3.97
2019-01-30T08:27:30.191Z,3.94
2019-01-30T08:28:34.541Z,3.98
2019-01-30T08:29:40.436Z,3.90
2019-01-30T08:30:45.903Z,3.90
2019-01-30T08:31:51.280Z,3.97
2019-01-30T08:33:04.043Z,3.89
2019-01-30T08:34:02.062Z,3.98
2019-01-30T08:35:07.581Z,3.96
2019-01-30T08:36:13.064Z,3.94
2019-01-30T08:37:18.588Z,3.96
2019-01-30T08:38:24.100Z,3.90
2019-01-30T08:39:30.569Z,3.94
2019-01-30T08:40:35.099Z,3.96
2019-01-30T08:41:40.569Z,3.94
2019-01-30T08:42:46.083Z,3.88
2019-01-30T08:43:51.579Z,3.92
2019-01-30T08:44:57.099Z,3.96
2019-01-30T08:46:03.575Z,4.00
2019-01-30T08:47:08.128Z,3.96
2019-01-30T08:48:13.633Z,4.07
2019-01-30T08:49:19.279Z,4.03
2019-01-30T08:50:24.618Z,3.96
2019-01-30T08:51:30.128Z,4.01
2019-01-30T08:52:36.649Z,4.01
2019-01-30T08:53:41.131Z,4.03
2019-01-30T08:54:46.560Z,4.00
2019-01-30T08:55:52.068Z,3.98
2019-01-30T08:56:58.538Z,3.98
2019-01-30T08:58:03.154Z,4.14
2019-01-30T08:59:09.670Z,4.06
2019-01-30T09:00:14.114Z,3.98
2019-01-30T09:01:19.695Z,4.08
2019-01-30T09:02:25.188Z,4.04
2019-01-30T09:03:30.671Z,4.14
2019-01-30T09:04:36.205Z,4.04
2019-01-30T09:05:42.798Z,4.06
2019-01-30T09:06:47.062Z,3.90
2019-01-30T09:07:52.690Z,4.01
2019-01-30T09:08:58.158Z,4.01
2019-01-30T09:10:03.679Z,3.97
2019-01-30T09:11:09.218Z,4.08
2019-01-30T09:12:15.684Z,4.03
2019-01-30T09:13:20.103Z,4.08
2019-01-30T09:14:25.754Z,3.96
2019-01-30T09:15:31.188Z,4.01
2019-01-30T09:16:36.749Z,4.04
2019-01-30T09:17:42.200Z,4.04
2019-01-30T09:18:48.759Z,4.01
2019-01-30T09:19:53.226Z,4.01
2019-01-30T09:20:58.740Z,3.97
2019-01-30T09:22:04.251Z,3.98
2019-01-30T09:23:09.759Z,4.06
2019-01-30T09:24:16.149Z,4.10
2019-01-30T09:25:21.731Z,4.10
2019-01-30T09:26:26.261Z,4.08
2019-01-30T09:27:31.730Z,4.14
2019-01-30T09:28:37.290Z,4.10
2019-01-30T09:29:42.779Z,4.08
2019-01-30T09:30:48.270Z,4.10
2019-01-30T09:31:54.751Z,4.01
2019-01-30T09:32:59.332Z,4.03
2019-01-30T09:34:04.750Z,4.04
2019-01-30T09:35:10.271Z,3.97
2019-01-30T09:36:15.786Z,4.00
2019-01-30T09:37:21.289Z,4.00
2019-01-30T09:38:27.850Z,4.03
2019-01-30T09:39:32.266Z,4.01
2019-01-30T09:40:37.807Z,4.01
2019-01-30T09:41:43.326Z,4.00
2019-01-30T09:42:48.760Z,4.01
2019-01-30T09:43:54.390Z,4.01
2019-01-30T09:45:00.804Z,3.98
2019-01-30T09:46:05.327Z,4.01
2019-01-30T09:47:11.412Z,4.01
2019-01-30T09:48:16.257Z,4.04
2019-01-30T09:49:21.862Z,4.01
2019-01-30T09:50:27.385Z,4.01
2019-01-30T09:51:33.829Z,4.01
2019-01-30T09:52:38.388Z,3.96
2019-01-30T09:53:43.852Z,3.96
2019-01-30T09:54:49.416Z,3.98
2019-01-30T09:55:54.887Z,3.98
2019-01-30T09:57:00.395Z,3.90
2019-01-30T09:58:06.877Z,3.98
2019-01-30T09:59:11.367Z,3.92
2019-01-30T10:00:16.823Z,3.97
2019-01-30T10:01:22.375Z,3.96
2019-01-30T10:02:27.906Z,3.97
2019-01-30T10:03:36.480Z,3.92
2019-01-30T10:04:39.917Z,3.90
2019-01-30T10:05:44.402Z,4.00
2019-01-30T10:06:49.869Z,3.90
2019-01-30T10:07:55.534Z,4.00
2019-01-30T10:09:00.927Z,3.90
2019-01-30T10:10:06.433Z,3.90
2019-01-30T10:11:12.923Z,3.94
2019-01-30T10:12:17.441Z,3.88
2019-01-30T10:13:22.990Z,3.92
2019-01-30T10:14:28.464Z,3.94
2019-01-30T10:15:34.667Z,3.89
2019-01-30T10:16:39.387Z,3.94
2019-01-30T10:17:45.935Z,3.88
2019-01-30T10:18:52.900Z,3.94
2019-01-30T10:19:56.036Z,3.96
2019-01-30T10:21:01.489Z,3.94
2019-01-30T10:22:06.965Z,3.90
2019-01-30T10:23:12.527Z,3.92
2019-01-30T10:24:18.947Z,4.03
2019-01-30T10:25:23.500Z,4.01
2019-01-30T10:26:28.978Z,4.01
2019-01-30T10:27:34.437Z,4.00
2019-01-30T10:28:39.999Z,3.98
2019-01-30T10:29:45.466Z,4.00
2019-01-30T10:30:51.995Z,4.04
2019-01-30T10:31:56.488Z,4.00
2019-01-30T10:33:02.030Z,4.00
2019-01-30T10:34:07.618Z,4.01
2019-01-30T10:35:12.985Z,4.01
2019-01-30T10:36:18.507Z,4.03
2019-01-30T10:37:25.026Z,4.04
2019-01-30T10:38:29.539Z,3.97
2019-01-30T10:39:35.080Z,3.88
2019-01-30T10:40:40.564Z,4.00
2019-01-30T10:41:45.988Z,3.96
2019-01-30T10:42:51.496Z,3.92
2019-01-30T10:43:58.065Z,3.86
2019-01-30T10:45:02.582Z,3.90
2019-01-30T10:46:08.078Z,3.90
2019-01-30T10:47:13.559Z,3.96
2019-01-30T10:48:19.032Z,3.94
2019-01-30T10:49:24.560Z,3.92
2019-01-30T10:50:30.998Z,3.90
2019-01-30T10:51:35.557Z,3.90
2019-01-30T10:52:41.075Z,3.88
2019-01-30T10:53:48.096Z,3.96
2019-01-30T10:54:52.112Z,4.01
2019-01-30T10:55:57.708Z,3.97
2019-01-30T10:57:04.100Z,3.94
2019-01-30T10:58:08.617Z,3.98
2019-01-30T10:59:14.140Z,3.89
2019-01-30T11:00:19.639Z,3.89
2019-01-30T11:01:25.102Z,3.92
2019-01-30T11:02:30.597Z,3.92
2019-01-30T11:03:37.164Z,3.92
2019-01-30T11:04:41.594Z,3.94
2019-01-30T11:05:47.058Z,4.00
2019-01-30T11:06:52.608Z,3.96
2019-01-30T11:07:58.091Z,3.98
2019-01-30T11:09:03.644Z,3.92
2019-01-30T11:10:10.110Z,4.00
2019-01-30T11:11:14.656Z,3.97
2019-01-30T11:12:20.096Z,3.90
2019-01-30T11:13:25.549Z,3.94
2019-01-30T11:14:31.151Z,3.96
2019-01-30T11:15:36.641Z,3.94
2019-01-30T11:16:43.191Z,3.96
2019-01-30T11:17:47.635Z,3.92
2019-01-30T11:18:53.171Z,3.92
2019-01-30T11:19:58.970Z,3.96
2019-01-30T11:21:05.969Z,4.00
2019-01-30T11:22:09.790Z,4.00
2019-01-30T11:23:18.710Z,4.04
2019-01-30T11:24:20.846Z,3.97
2019-01-30T11:25:26.392Z,4.00
2019-01-30T11:26:31.834Z,3.97
2019-01-30T11:27:37.395Z,3.96
2019-01-30T11:28:42.784Z,3.98
2019-01-30T11:29:49.654Z,4.01
2019-01-30T11:30:53.806Z,3.96
2019-01-30T11:31:59.261Z,4.01
2019-01-30T11:33:05.366Z,4.01
2019-01-30T11:34:12.402Z,4.01
2019-01-30T11:35:16.356Z,3.92
2019-01-30T11:36:22.535Z,3.96
2019-01-30T11:37:26.803Z,4.03
2019-01-30T11:38:32.442Z,3.96
2019-01-30T11:39:37.820Z,4.03
2019-01-30T11:40:43.286Z,4.01
2019-01-30T11:41:48.814Z,4.04
2019-01-30T11:42:57.677Z,3.97
2019-01-30T11:43:59.969Z,4.04
2019-01-30T11:45:05.642Z,4.00
2019-01-30T11:46:10.867Z,3.94
2019-01-30T11:47:17.883Z,3.96
2019-01-30T11:48:21.949Z,3.85
2019-01-30T11:49:28.484Z,3.90
2019-01-30T11:50:32.913Z,3.89
2019-01-30T11:51:38.413Z,3.89
2019-01-30T11:52:46.042Z,3.98
2019-01-30T11:53:49.351Z,3.98
2019-01-30T11:54:54.868Z,3.98
2019-01-30T11:56:01.627Z,4.00
2019-01-30T11:57:06.620Z,4.00
2019-01-30T11:58:11.244Z,3.96
2019-01-30T11:59:16.672Z,3.96
2019-01-30T12:00:22.486Z,4.00
2019-01-30T12:01:28.894Z,4.06
2019-01-30T12:02:34.430Z,4.06
2019-01-30T12:03:38.838Z,4.07
2019-01-30T12:04:44.331Z,4.06
2019-01-30T12:05:49.871Z,4.06
2019-01-30T12:06:56.095Z,4.06
2019-01-30T12:08:00.848Z,4.18
2019-01-30T12:09:07.365Z,4.12
2019-01-30T12:10:11.824Z,4.12
2019-01-30T12:11:17.420Z,4.10
2019-01-30T12:12:22.878Z,4.15
2019-01-30T12:13:28.362Z,4.12
2019-01-30T12:14:33.848Z,4.10
2019-01-30T12:15:40.388Z,4.16
2019-01-30T12:16:44.896Z,4.26
2019-01-30T12:17:50.358Z,4.21
2019-01-30T12:18:55.780Z,4.14
2019-01-30T12:20:01.365Z,4.12
2019-01-30T12:21:07.005Z,4.18
2019-01-30T12:22:13.435Z,4.21
2019-01-30T12:23:17.934Z,4.21
2019-01-30T12:24:23.381Z,4.16
2019-01-30T12:25:28.907Z,4.18
2019-01-30T12:26:34.467Z,4.26
2019-01-30T12:27:39.940Z,4.14
2019-01-30T12:28:46.364Z,4.18
2019-01-30T12:29:50.961Z,4.25
2019-01-30T12:30:56.459Z,4.14
2019-01-30T12:32:01.950Z,4.24
2019-01-30T12:33:07.431Z,4.18
2019-01-30T12:34:12.903Z,4.16
2019-01-30T12:35:19.376Z,4.26
2019-01-30T12:36:24.067Z,4.15
2019-01-30T12:37:29.432Z,4.16
2019-01-30T12:38:34.906Z,4.16
2019-01-30T12:39:40.417Z,4.26
2019-01-30T12:40:45.856Z,4.18
2019-01-30T12:41:52.457Z,4.29
2019-01-30T12:42:56.975Z,4.22
2019-01-30T12:44:02.443Z,4.26
2019-01-30T12:45:07.961Z,4.19
2019-01-30T12:46:13.490Z,4.16
2019-01-30T12:47:20.063Z,4.14
2019-01-30T12:48:26.330Z,4.29
2019-01-30T12:49:29.890Z,4.29
2019-01-30T12:50:35.487Z,4.18
2019-01-30T12:51:40.915Z,4.16
2019-01-30T12:52:46.376Z,4.16
2019-01-30T12:53:51.952Z,4.21
2019-01-30T12:54:58.457Z,4.24
2019-01-30T12:56:02.960Z,4.26
2019-01-30T12:57:08.475Z,4.28
2019-01-30T12:58:13.953Z,4.22
2019-01-30T12:59:19.473Z,4.25
2019-01-30T13:00:24.996Z,4.34
2019-01-30T13:01:31.466Z,4.37
2019-01-30T13:02:35.939Z,4.36
2019-01-30T13:03:41.455Z,4.37
2019-01-30T13:04:46.962Z,4.36
2019-01-30T13:05:52.516Z,4.40
2019-01-30T13:06:58.070Z,4.40
2019-01-30T13:08:04.599Z,4.39
2019-01-30T13:09:09.032Z,4.39
2019-01-30T13:10:14.489Z,4.34
2019-01-30T13:11:20.063Z,4.46
2019-01-30T13:12:25.528Z,4.39
2019-01-30T13:13:31.044Z,4.43
2019-01-30T13:14:37.573Z,4.43
2019-01-30T13:15:42.087Z,4.47
2019-01-30T13:16:47.512Z,4.47
2019-01-30T13:17:53.102Z,4.46
2019-01-30T13:18:58.550Z,4.50
2019-01-30T13:20:04.127Z,4.51
2019-01-30T13:21:10.616Z,4.50
2019-01-30T13:22:15.101Z,4.52
2019-01-30T13:23:20.644Z,4.51
2019-01-30T13:24:26.104Z,4.47
2019-01-30T13:25:31.541Z,4.47
2019-01-30T13:26:37.097Z,4.46
2019-01-30T13:27:43.662Z,4.46
2019-01-30T13:28:48.124Z,4.47
2019-01-30T13:29:53.671Z,4.47
2019-01-30T13:30:59.067Z,4.46
2019-01-30T13:32:04.767Z,4.51
2019-01-30T13:33:10.174Z,4.51
2019-01-30T13:34:16.580Z,4.50
2019-01-30T13:35:21.125Z,4.51
2019-01-30T13:36:26.685Z,4.47
2019-01-30T13:37:32.154Z,4.50
2019-01-30T13:38:37.575Z,4.51
2019-01-30T13:39:43.163Z,4.46
2019-01-30T13:40:49.626Z,4.46
2019-01-30T13:41:54.140Z,4.47
2019-01-30T13:42:59.644Z,4.51
2019-01-30T13:44:05.292Z,4.47
2019-01-30T13:45:10.608Z,4.42
2019-01-30T13:46:16.198Z,4.43
2019-01-30T13:47:22.715Z,4.33
2019-01-30T13:48:27.251Z,4.36
2019-01-30T13:49:32.666Z,4.37
2019-01-30T13:50:38.235Z,4.40
2019-01-30T13:51:43.641Z,4.34
2019-01-30T13:52:49.229Z,4.39
2019-01-30T13:53:55.806Z,4.42
2019-01-30T13:55:00.263Z,4.39
2019-01-30T13:56:05.701Z,4.36
2019-01-30T13:57:11.226Z,4.36
2019-01-30T13:58:16.731Z,4.33
2019-01-30T13:59:22.245Z,4.32
2019-01-30T14:00:28.877Z,4.42
2019-01-30T14:01:33.328Z,4.39
2019-01-30T14:02:38.726Z,4.40
2019-01-30T14:03:44.290Z,4.36
2019-01-30T14:04:59.106Z,4.34
2019-01-30T14:05:55.263Z,4.36
2019-01-30T14:07:01.774Z,4.42
2019-01-30T14:08:06.303Z,4.29
2019-01-30T14:09:11.811Z,4.29
2019-01-30T14:10:17.220Z,4.34
2019-01-30T14:11:22.947Z,4.29
2019-01-30T14:12:28.362Z,4.29
2019-01-30T14:13:34.821Z,4.32
2019-01-30T14:14:39.353Z,4.32
2019-01-30T14:15:44.822Z,4.40
2019-01-30T14:16:50.276Z,4.29
2019-01-30T14:17:55.917Z,4.39
2019-01-30T14:19:01.507Z,4.28
2019-01-30T14:20:07.859Z,4.34
2019-01-30T14:21:12.352Z,4.40
2019-01-30T14:22:17.877Z,4.44
2019-01-30T14:23:23.295Z,4.50
2019-01-30T14:24:28.854Z,4.64
2019-01-30T14:25:34.325Z,4.50
2019-01-30T14:26:40.878Z,4.61
2019-01-30T14:27:45.396Z,4.51
2019-01-30T14:28:50.848Z,4.69
2019-01-30T14:29:58.433Z,4.65
2019-01-30T14:31:01.830Z,4.67
2019-01-30T14:32:07.409Z,4.62